Flight Track Log - Related Links

Times and Time Zones

All times are in EST time to prevent confusion due to time zone crossing. See the EGF4097 flight status page for this flight to view local times or setup timezone preferences in your user account.

Time Position Orientation Groundspeed Altitude Reporting Facility
EST Latitude Longitude Course Direction KTS MPH feet Rate Location/Type
Sun 04:17:49 PM 41.9893 -87.7713 212° Southwest  Level FlightAware Approximate
Sun 04:19:11 PM 41.9167 -87.8333 72° East 249 287 4,700  Level Chicago TRACON
Sun 04:21:35 PM 41.9744 -87.5958 71° East 286 329 8,200 1,706 Climbing Chicago Center
Sun 04:22:35 PM 42.0039 -87.4833 70° East 297 342 10,500 1,800 Climbing Chicago Center
Sun 04:23:35 PM 42.0353 -87.3650 71° East 318 366 11,800 1,150 Climbing Chicago Center
Sun 04:24:35 PM 42.0703 -87.2269 70° East 353 406 12,800 1,000 Climbing Chicago Center
Sun 04:25:35 PM 42.1092 -87.0828 84° East 385 443 13,800 1,100 Climbing Chicago Center
Sun 04:26:35 PM 42.1206 -86.9228 89° East 424 488 15,000 1,200 Climbing Chicago Center
Sun 04:27:35 PM 42.1233 -86.7603 86° East 424 488 16,200 1,200 Climbing Chicago Center
Sun 04:28:35 PM 42.1303 -86.6089 87° East 442 509 17,400 1,250 Climbing Chicago Center
Sun 04:29:35 PM 42.1361 -86.4264 88° East 442 509 18,700 1,350 Climbing Chicago Center
Sun 04:30:35 PM 42.1400 -86.2583 87° East 442 509 20,100 1,400 Climbing Chicago Center
Sun 04:31:35 PM 42.1458 -86.0900 91° East 447 514 21,500 1,300 Climbing Chicago Center
Sun 04:32:35 PM 42.1428 -85.9164 91° East 453 521 22,700 1,250 Climbing Chicago Center
Sun 04:33:35 PM 42.1414 -85.7372 90° East 464 534 24,000 1,100 Climbing Chicago Center
Sun 04:34:35 PM 42.1406 -85.5775 92° East 469 540 24,900 500 Climbing Chicago Center
Sun 04:35:35 PM 42.1361 -85.3875 89° East 481 554 25,000 300 Climbing Chicago Center
Sun 04:36:15 PM 42.1378 -85.2572 91° East 497 572 25,400 1,020 Climbing Cleveland Center
Sun 04:37:15 PM 42.1350 -85.0667 90° East 523 602 26,700 1,350 Climbing Cleveland Center
Sun 04:38:15 PM 42.1339 -84.8817 93° East 501 577 28,100 1,350 Climbing Cleveland Center
Sun 04:39:15 PM 42.1267 -84.6794 92° East 496 571 29,400 1,350 Climbing Cleveland Center
Sun 04:40:15 PM 42.1225 -84.4944 84° East 491 565 30,800 1,350 Climbing Cleveland Center
Sun 04:41:15 PM 42.1367 -84.3189 68° East 478 550 32,100 1,300 Climbing Cleveland Center
Sun 04:42:15 PM 42.1858 -84.1536 67° East 470 541 33,400 1,300 Climbing Cleveland Center
Sun 04:43:15 PM 42.2389 -83.9881 68° East 472 543 34,700 800 Climbing Cleveland Center
Sun 04:44:15 PM 42.2872 -83.8250 68° East 472 543 35,000 150 Climbing Cleveland Center
Sun 04:45:15 PM 42.3400 -83.6481 70° East 477 549 35,000  Level Cleveland Center
Sun 04:46:15 PM 42.3864 -83.4703 67° East 496 571 35,000  Level Cleveland Center
Sun 04:47:15 PM 42.4383 -83.3067 68° East 507 583 35,000  Level Cleveland Center
Sun 04:48:15 PM 42.4947 -83.1147 69° East 507 583 35,000  Level Cleveland Center
Sun 04:49:15 PM 42.5444 -82.9392 68° East 499 574 35,000  Level Cleveland Center
Sun 04:50:15 PM 42.5958 -82.7661 69° East 493 567 35,000  Level Cleveland Center
Sun 04:51:15 PM 42.6428 -82.5956 68° East 484 557 35,000  Level Cleveland Center
Sun 04:52:15 PM 42.6936 -82.4222 68° East 484 557 35,000  Level Cleveland Center
Sun 04:53:15 PM 42.7442 -82.2483 70° East 490 564 35,000  Level Cleveland Center
Sun 04:54:15 PM 42.7858 -82.0911 69° East 490 564 35,000  Level Cleveland Center
Sun 04:55:15 PM 42.8361 -81.9111 74° East 490 564 35,000  Level Cleveland Center
Sun 04:56:28 PM 42.8833 -81.6833 70° East 490 564 35,000  Level Toronto Center
Sun 04:57:28 PM 42.9333 -81.5000 69° East 500 575 35,000  Level Toronto Center
Sun 04:58:28 PM 42.9833 -81.3167 76° East 500 575 35,000  Level Toronto Center
Sun 04:59:28 PM 43.0167 -81.1333 59° Northeast 510 587 35,000  Level Toronto Center
Sun 05:00:28 PM 43.0833 -80.9833 58° Northeast 500 575 35,000  Level Toronto Center
Sun 05:01:28 PM 43.1667 -80.8000 61° Northeast 500 575 35,000  Level Toronto Center
Sun 05:02:28 PM 43.2333 -80.6333 59° Northeast 500 575 35,000  Level Toronto Center
Sun 05:03:28 PM 43.3000 -80.4833 61° Northeast 490 564 35,000  Level Toronto Center
Sun 05:04:28 PM 43.3667 -80.3167 58° Northeast 490 564 35,000  Level Toronto Center
Sun 05:05:28 PM 43.4333 -80.1667 61° Northeast 480 552 35,000  Level Toronto Center
Sun 05:06:28 PM 43.5000 -80.0000 67° East 480 552 35,000  Level Toronto Center
Sun 05:07:28 PM 43.5500 -79.8333 58° Northeast 480 552 35,000  Level Toronto Center
Sun 05:08:28 PM 43.6167 -79.6833 63° Northeast 480 552 35,000  Level Toronto Center
Sun 05:09:28 PM 43.6833 -79.5000 67° East 480 552 35,000  Level Toronto Center
Sun 05:10:28 PM 43.7333 -79.3333 67° East 490 564 35,000  Level Toronto Center
Sun 05:11:28 PM 43.7833 -79.1667 63° Northeast 490 564 35,000  Level Toronto Center
Sun 05:12:28 PM 43.8500 -78.9833 67° East 490 564 35,000  Level Toronto Center
Sun 05:13:28 PM 43.9000 -78.8167 63° Northeast 490 564 35,000  Level Toronto Center
Sun 05:14:28 PM 43.9667 -78.6333 74° East 490 564 35,000  Level Toronto Center
Sun 05:15:28 PM 44.0000 -78.4667 69° East 500 575 35,000  Level Toronto Center
Sun 05:16:28 PM 44.0500 -78.2833 63° Northeast 500 575 35,000  Level Toronto Center
Sun 05:17:28 PM 44.1167 -78.1000 67° East 500 575 35,000  Level Toronto Center
Sun 05:18:28 PM 44.1667 -77.9333 55° Northeast 500 575 35,000  Level Toronto Center
Sun 05:19:28 PM 44.2500 -77.7667 55° Northeast 480 552 35,000 -900 Level Toronto Center
Sun 05:20:28 PM 44.3167 -77.6333 55° Northeast 490 564 33,200 -2,150 Descending Toronto Center
Sun 05:21:28 PM 44.4000 -77.4667 61° Northeast 500 575 30,700 -2,400 Descending Toronto Center
Sun 05:22:28 PM 44.4667 -77.3000 58° Northeast 490 564 28,400 -2,450 Descending Toronto Center
Sun 05:23:28 PM 44.5333 -77.1500 55° Northeast 470 541 25,800 -2,200 Descending Toronto Center
Sun 05:24:28 PM 44.6000 -77.0167 57° Northeast 450 518 24,000 -1,350 Descending Toronto Center
Sun 05:25:28 PM 44.6833 -76.8333 55° Northeast 440 506 23,100 -1,500 Descending Toronto Center
Sun 05:26:28 PM 44.7500 -76.7000 51° Northeast 460 529 21,000 -2,100 Descending Toronto Center
Sun 05:27:28 PM 44.8167 -76.5833 58° Northeast 460 529 18,900 -2,050 Descending Toronto Center
Sun 05:28:28 PM 44.8833 -76.4333 51° Northeast 420 483 16,900 -2,150 Descending Toronto Center
Sun 05:29:28 PM 44.9500 -76.3167 47° Northeast 390 449 14,600 -2,400 Descending Toronto Center
Sun 05:30:28 PM 45.0167 -76.2167 55° Northeast 360 414 12,100 -2,000 Descending Toronto Center
Sun 05:31:28 PM 45.0833 -76.0833 74° East 340 391 10,600 -1,300 Descending Toronto Center
Sun 05:32:28 PM 45.1000 -76.0000 77° East 300 345 9,500 -1,300 Descending Toronto Center
Sun 05:33:28 PM 45.1167 -75.9000 90° East 280 322 8,000 -1,550 Descending Toronto Center
Sun 05:34:28 PM 45.1167 -75.7833 77° East 280 322 6,400 -1,350 Descending Toronto Center
Sun 05:35:28 PM 45.1333 -75.6833 90° East 260 299 5,300 -1,050 Descending Toronto Center
Sun 05:36:28 PM 45.1333 -75.5833 47° Northeast 220 253 4,300 -1,000 Descending Toronto Center
Sun 05:37:28 PM 45.1667 -75.5333 47° Northeast 210 242 3,300 -1,000 Descending Toronto Center

Login

Don't have an account? Register now (free) for customized features, flight alerts, and more!